Time;durP1;ratioP1;P1;durP2;ratioP2;P2;SDS_P1;SDS_P2;PMS_P1;PMS_P2;Temp;Humidity;BMP_temperature;BMP_pressure;BME280_temperature;BME280_humidity;BME280_pressure;Samples;Min_cycle;Max_cycle;Signal;HPM_P1;HPM_P2
2023/05/16 00:00:10;;;;;;;;;;;22.50;56.20;;;;;;1553297;75;752;-58
2023/05/16 00:02:12;;;;;;;;;;;22.50;56.00;;;;;;1554725;75;680;-58
2023/05/16 00:04:14;;;;;;;;;;;22.50;56.20;;;;;;1560008;75;690;-58
2023/05/16 00:06:16;;;;;;;;;;;22.60;56.10;;;;;;1555038;75;1181;-57
2023/05/16 00:08:18;;;;;;;;;;;22.50;56.30;;;;;;1557340;75;735;-58
2023/05/16 00:10:20;;;;;;;;;;;22.50;56.40;;;;;;1556584;75;734;-59
2023/05/16 00:12:22;;;;;;;;;;;22.50;56.20;;;;;;1554021;75;1458;-59
2023/05/16 00:14:25;;;;;;;;;;;22.50;56.00;;;;;;1563528;75;698;-59
2023/05/16 00:16:28;;;;;;;;;;;22.60;55.90;;;;;;1561452;75;1138;-60
2023/05/16 00:18:30;;;;;;;;;;;22.70;55.80;;;;;;1559294;75;1910;-58
2023/05/16 00:20:33;;;;;;;;;;;22.60;55.60;;;;;;1550120;76;1097;-59
2023/05/16 00:22:35;;;;;;;;;;;22.60;55.70;;;;;;1543800;76;703;-58
2023/05/16 00:24:37;;;;;;;;;;;22.60;55.60;;;;;;1547296;76;721;-58
2023/05/16 00:26:39;;;;;;;;;;;22.60;55.70;;;;;;1544182;76;1430;-58
2023/05/16 00:28:41;;;;;;;;;;;22.60;55.50;;;;;;1543625;76;696;-59
2023/05/16 00:30:43;;;;;;;;;;;22.60;55.50;;;;;;1545991;76;682;-58
2023/05/16 00:32:45;;;;;;;;;;;22.60;55.50;;;;;;1539029;75;740;-58
2023/05/16 00:34:46;;;;;;;;;;;22.70;55.50;;;;;;1533024;76;736;-58
2023/05/16 00:36:50;;;;;;;;;;;22.60;55.50;;;;;;1545215;75;1122;-57
2023/05/16 00:38:52;;;;;;;;;;;22.60;55.50;;;;;;1549912;76;1967;-56
2023/05/16 00:40:54;;;;;;;;;;;22.60;55.30;;;;;;1545743;76;1513;-56
2023/05/16 00:42:56;;;;;;;;;;;22.70;55.30;;;;;;1547603;76;822;-59
2023/05/16 00:44:58;;;;;;;;;;;22.70;55.20;;;;;;1545107;76;629;-56
2023/05/16 00:47:01;;;;;;;;;;;22.70;55.10;;;;;;1545279;75;1089;-57
2023/05/16 00:49:03;;;;;;;;;;;22.70;55.00;;;;;;1546114;76;741;-57
2023/05/16 00:51:08;;;;;;;;;;;22.70;54.90;;;;;;1544038;76;680;-59
2023/05/16 00:53:09;;;;;;;;;;;22.80;54.80;;;;;;1535681;76;1703;-57
2023/05/16 00:55:11;;;;;;;;;;;22.80;54.80;;;;;;1542433;75;1444;-57
2023/05/16 00:57:13;;;;;;;;;;;22.80;54.70;;;;;;1542684;75;1125;-57
2023/05/16 00:59:15;;;;;;;;;;;22.80;54.70;;;;;;1544042;76;1936;-57
2023/05/16 01:01:17;;;;;;;;;;;22.80;54.60;;;;;;1540853;75;810;-58
2023/05/16 01:03:20;;;;;;;;;;;22.80;54.60;;;;;;1542318;76;769;-57
2023/05/16 01:05:22;;;;;;;;;;;22.80;54.60;;;;;;1539451;76;935;-58
2023/05/16 01:07:24;;;;;;;;;;;22.80;54.50;;;;;;1545669;75;1141;-57
2023/05/16 01:09:25;;;;;;;;;;;22.80;54.50;;;;;;1548912;76;1557;-58
2023/05/16 01:11:32;;;;;;;;;;;22.80;54.50;;;;;;1545518;76;724;-58
2023/05/16 01:13:35;;;;;;;;;;;22.80;54.50;;;;;;1538403;76;707;-57
2023/05/16 01:15:51;;;;;;;;;;;22.70;54.50;;;;;;1551795;76;1820;-57
2023/05/16 01:17:55;;;;;;;;;;;22.70;54.50;;;;;;1542009;76;1769;-57
2023/05/16 01:19:58;;;;;;;;;;;22.70;54.40;;;;;;1540812;76;1935;-57
2023/05/16 01:22:05;;;;;;;;;;;22.70;54.40;;;;;;1545619;76;1702;-57
2023/05/16 01:24:11;;;;;;;;;;;22.70;54.40;;;;;;1545236;76;1876;-57
2023/05/16 01:26:15;;;;;;;;;;;22.70;54.70;;;;;;1540576;75;1197;-57
2023/05/16 01:28:17;;;;;;;;;;;22.70;55.00;;;;;;1538454;76;724;-57
2023/05/16 01:30:19;;;;;;;;;;;22.70;55.00;;;;;;1548333;76;699;-57
2023/05/16 01:32:25;;;;;;;;;;;22.70;55.00;;;;;;1552008;75;715;-57
2023/05/16 01:34:25;;;;;;;;;;;22.70;55.00;;;;;;1552355;76;1330;-58
2023/05/16 01:36:30;;;;;;;;;;;22.60;54.90;;;;;;1545969;75;1409;-57
2023/05/16 01:38:43;;;;;;;;;;;22.60;55.00;;;;;;1543879;76;1939;-57
2023/05/16 01:40:49;;;;;;;;;;;22.60;55.00;;;;;;1538264;76;674;-57
2023/05/16 01:42:52;;;;;;;;;;;22.70;55.00;;;;;;1544163;76;1755;-57
2023/05/16 01:44:58;;;;;;;;;;;22.70;55.10;;;;;;1546977;75;727;-58
2023/05/16 01:47:01;;;;;;;;;;;22.70;55.20;;;;;;1541130;75;2137;-57
2023/05/16 01:49:07;;;;;;;;;;;22.60;55.20;;;;;;1547114;76;759;-58
2023/05/16 01:51:09;;;;;;;;;;;22.60;55.30;;;;;;1499320;76;1509;-57
2023/05/16 01:53:12;;;;;;;;;;;22.60;55.70;;;;;;1545944;76;773;-57
2023/05/16 01:55:24;;;;;;;;;;;22.50;55.50;;;;;;1533787;76;768;-57
2023/05/16 01:57:26;;;;;;;;;;;22.50;55.50;;;;;;1543738;75;1094;-59
2023/05/16 01:59:28;;;;;;;;;;;22.50;55.60;;;;;;1544066;76;1927;-57
2023/05/16 02:01:30;;;;;;;;;;;22.60;55.60;;;;;;1545742;75;642;-57
2023/05/16 02:03:32;;;;;;;;;;;22.50;55.90;;;;;;1531367;76;732;-58
2023/05/16 02:05:34;;;;;;;;;;;22.50;55.70;;;;;;1546340;76;1599;-57
2023/05/16 02:07:36;;;;;;;;;;;22.50;55.70;;;;;;1544031;75;1142;-57
2023/05/16 02:09:38;;;;;;;;;;;22.50;55.80;;;;;;1536755;76;757;-57
2023/05/16 02:11:40;;;;;;;;;;;22.50;55.70;;;;;;1544173;76;765;-57
2023/05/16 02:13:42;;;;;;;;;;;22.50;55.70;;;;;;1533540;76;733;-57
2023/05/16 02:15:44;;;;;;;;;;;22.60;55.50;;;;;;1550242;75;809;-57
2023/05/16 02:17:47;;;;;;;;;;;22.50;55.30;;;;;;1542464;75;1108;-57
2023/05/16 02:19:48;;;;;;;;;;;22.60;55.30;;;;;;1545503;75;1951;-57
2023/05/16 02:21:50;;;;;;;;;;;22.60;55.30;;;;;;1543926;76;656;-57
2023/05/16 02:23:52;;;;;;;;;;;22.50;55.30;;;;;;1550539;76;701;-59
2023/05/16 02:25:54;;;;;;;;;;;22.60;55.40;;;;;;1535305;76;1151;-57
2023/05/16 02:27:56;;;;;;;;;;;22.50;55.50;;;;;;1549945;76;800;-58
2023/05/16 02:29:58;;;;;;;;;;;22.60;55.30;;;;;;1547664;75;661;-57
2023/05/16 02:32:00;;;;;;;;;;;22.60;55.20;;;;;;1541627;76;1553;-57
2023/05/16 02:34:02;;;;;;;;;;;22.60;55.10;;;;;;1548330;76;683;-57
2023/05/16 02:36:04;;;;;;;;;;;22.60;55.10;;;;;;1538183;76;1412;-57
2023/05/16 02:38:06;;;;;;;;;;;22.60;55.00;;;;;;1536164;76;750;-57
2023/05/16 02:40:08;;;;;;;;;;;22.60;55.10;;;;;;1533889;76;1940;-56
2023/05/16 02:42:10;;;;;;;;;;;22.50;55.20;;;;;;1550993;76;702;-57
2023/05/16 02:44:12;;;;;;;;;;;22.50;55.60;;;;;;1537266;76;756;-57
2023/05/16 02:46:24;;;;;;;;;;;22.50;55.90;;;;;;1547236;75;1482;-57
2023/05/16 02:48:26;;;;;;;;;;;22.40;56.00;;;;;;1537028;76;731;-56
2023/05/16 02:50:28;;;;;;;;;;;22.30;56.00;;;;;;1549746;76;793;-57
2023/05/16 02:52:29;;;;;;;;;;;22.30;56.20;;;;;;1544877;76;725;-56
2023/05/16 02:54:31;;;;;;;;;;;22.30;56.20;;;;;;1545413;76;715;-56
2023/05/16 02:56:33;;;;;;;;;;;22.40;56.30;;;;;;1540355;75;1141;-56
2023/05/16 02:58:35;;;;;;;;;;;22.30;56.30;;;;;;1543667;76;669;-57
2023/05/16 03:00:37;;;;;;;;;;;22.30;56.30;;;;;;1540498;75;1528;-58
2023/05/16 03:02:39;;;;;;;;;;;22.30;56.20;;;;;;1551595;76;715;-58
2023/05/16 03:04:41;;;;;;;;;;;22.40;56.30;;;;;;1549714;76;661;-56
2023/05/16 03:06:43;;;;;;;;;;;22.20;56.30;;;;;;1537511;76;1148;-58
2023/05/16 03:08:45;;;;;;;;;;;22.30;56.30;;;;;;1546502;76;728;-56
2023/05/16 03:10:46;;;;;;;;;;;22.30;56.30;;;;;;1541263;76;732;-56
2023/05/16 03:12:48;;;;;;;;;;;22.30;56.20;;;;;;1543635;76;682;-56
2023/05/16 03:14:50;;;;;;;;;;;22.40;56.10;;;;;;1547109;75;1471;-56
2023/05/16 03:16:52;;;;;;;;;;;22.30;56.00;;;;;;1548297;75;1192;-57
2023/05/16 03:18:54;;;;;;;;;;;22.40;56.10;;;;;;1548236;76;1934;-59
2023/05/16 03:20:57;;;;;;;;;;;22.40;56.30;;;;;;1534107;76;1134;-57
2023/05/16 03:22:58;;;;;;;;;;;22.30;56.20;;;;;;1540502;76;735;-59
2023/05/16 03:25:01;;;;;;;;;;;22.40;56.10;;;;;;1551356;76;592;-58
2023/05/16 03:27:03;;;;;;;;;;;22.30;56.00;;;;;;1537397;76;1193;-57
2023/05/16 03:29:05;;;;;;;;;;;22.30;56.00;;;;;;1539977;75;1441;-56
2023/05/16 03:31:07;;;;;;;;;;;22.30;56.40;;;;;;1547803;76;749;-57
2023/05/16 03:33:09;;;;;;;;;;;22.40;56.30;;;;;;1541636;76;614;-56
2023/05/16 03:35:11;;;;;;;;;;;22.40;56.00;;;;;;1531547;76;760;-57
2023/05/16 03:37:14;;;;;;;;;;;22.40;55.80;;;;;;1540477;76;1130;-57
2023/05/16 03:39:16;;;;;;;;;;;22.40;55.70;;;;;;1541192;76;1921;-57
2023/05/16 03:41:18;;;;;;;;;;;22.50;55.70;;;;;;1540770;76;721;-57
2023/05/16 03:43:20;;;;;;;;;;;22.50;55.60;;;;;;1538309;75;1434;-57
2023/05/16 03:45:22;;;;;;;;;;;22.50;55.50;;;;;;1543802;76;590;-57
2023/05/16 03:47:24;;;;;;;;;;;22.50;55.30;;;;;;1543184;76;1135;-57
2023/05/16 03:49:28;;;;;;;;;;;22.60;55.20;;;;;;1532551;76;778;-57
2023/05/16 03:51:30;;;;;;;;;;;22.60;55.00;;;;;;1544978;76;699;-58
2023/05/16 03:53:32;;;;;;;;;;;22.60;54.90;;;;;;1543870;76;739;-57
2023/05/16 03:55:34;;;;;;;;;;;22.60;54.90;;;;;;1548544;76;658;-57
2023/05/16 03:57:41;;;;;;;;;;;22.70;54.90;;;;;;1542813;75;1496;-58
2023/05/16 03:59:43;;;;;;;;;;;22.70;54.80;;;;;;1554491;75;1895;-58
2023/05/16 04:01:44;;;;;;;;;;;22.60;54.60;;;;;;1547566;76;789;-57
2023/05/16 04:03:46;;;;;;;;;;;22.60;54.60;;;;;;1547161;76;793;-58
2023/05/16 04:05:48;;;;;;;;;;;22.60;54.50;;;;;;1547485;76;687;-58
2023/05/16 04:07:50;;;;;;;;;;;22.60;54.50;;;;;;1545474;76;1149;-58
2023/05/16 04:09:54;;;;;;;;;;;22.70;54.50;;;;;;1545255;76;717;-58
2023/05/16 04:11:56;;;;;;;;;;;22.70;54.60;;;;;;1541968;76;1530;-58
2023/05/16 04:13:58;;;;;;;;;;;22.60;54.50;;;;;;1538508;75;736;-58
2023/05/16 04:16:00;;;;;;;;;;;22.60;54.60;;;;;;1538835;76;1174;-58
2023/05/16 04:18:02;;;;;;;;;;;22.70;54.60;;;;;;1540729;76;809;-58
2023/05/16 04:20:05;;;;;;;;;;;22.70;54.60;;;;;;1547833;76;1943;-57
2023/05/16 04:22:07;;;;;;;;;;;22.60;54.40;;;;;;1553650;76;1091;-57
2023/05/16 04:24:09;;;;;;;;;;;22.60;54.40;;;;;;1554527;76;707;-55
2023/05/16 04:26:11;;;;;;;;;;;22.60;54.40;;;;;;1551378;75;1444;-56
2023/05/16 04:28:13;;;;;;;;;;;22.70;54.50;;;;;;1551830;75;729;-54
2023/05/16 04:30:15;;;;;;;;;;;22.70;54.60;;;;;;1556082;76;712;-54
2023/05/16 04:32:18;;;;;;;;;;;22.60;54.70;;;;;;1544703;76;753;-54
2023/05/16 04:34:21;;;;;;;;;;;22.60;54.70;;;;;;1554416;76;677;-54
2023/05/16 04:36:23;;;;;;;;;;;22.60;54.80;;;;;;1547628;75;1125;-55
2023/05/16 04:38:25;;;;;;;;;;;22.60;54.80;;;;;;1548213;76;760;-58
2023/05/16 04:40:28;;;;;;;;;;;22.60;55.30;;;;;;1544954;76;1960;-55
2023/05/16 04:42:30;;;;;;;;;;;22.60;55.10;;;;;;1557267;76;782;-58
2023/05/16 04:44:33;;;;;;;;;;;22.50;55.00;;;;;;1549601;76;739;-58
2023/05/16 04:46:35;;;;;;;;;;;22.50;54.90;;;;;;1552602;74;1125;-56
2023/05/16 04:48:37;;;;;;;;;;;22.60;54.90;;;;;;1546341;76;785;-55
2023/05/16 04:50:39;;;;;;;;;;;22.50;54.70;;;;;;1553630;76;792;-54
2023/05/16 04:52:41;;;;;;;;;;;22.60;54.80;;;;;;1548112;76;1256;-57
2023/05/16 04:54:43;;;;;;;;;;;22.50;55.10;;;;;;1558156;76;705;-57
2023/05/16 04:56:45;;;;;;;;;;;22.50;55.50;;;;;;1556175;74;1141;-56
2023/05/16 04:58:47;;;;;;;;;;;22.50;55.50;;;;;;1556078;74;726;-59
2023/05/16 05:00:48;;;;;;;;;;;22.40;55.50;;;;;;1549674;76;1905;-59
2023/05/16 05:02:50;;;;;;;;;;;22.40;55.80;;;;;;1547944;76;786;-57
2023/05/16 05:04:52;;;;;;;;;;;22.50;55.80;;;;;;1557619;76;679;-57
2023/05/16 05:06:54;;;;;;;;;;;22.40;55.60;;;;;;1548779;75;1514;-58
2023/05/16 05:08:56;;;;;;;;;;;22.50;55.60;;;;;;1555057;75;1055;-57
2023/05/16 05:10:58;;;;;;;;;;;22.50;55.30;;;;;;1553933;76;742;-56
2023/05/16 05:13:00;;;;;;;;;;;22.50;55.30;;;;;;1558224;74;723;-57
2023/05/16 05:15:02;;;;;;;;;;;22.50;55.20;;;;;;1557384;76;753;-57
2023/05/16 05:17:04;;;;;;;;;;;22.50;55.10;;;;;;1559369;74;1141;-57
2023/05/16 05:19:07;;;;;;;;;;;22.50;55.00;;;;;;1551025;76;673;-57
2023/05/16 05:21:09;;;;;;;;;;;22.50;55.00;;;;;;1554060;76;1928;-57
2023/05/16 05:23:11;;;;;;;;;;;22.50;55.00;;;;;;1541978;76;903;-58
2023/05/16 05:25:13;;;;;;;;;;;22.50;55.00;;;;;;1531887;76;800;-57
2023/05/16 05:27:15;;;;;;;;;;;22.50;55.00;;;;;;1536464;75;1168;-57
2023/05/16 05:29:17;;;;;;;;;;;22.50;55.20;;;;;;1543327;76;702;-57
2023/05/16 05:31:19;;;;;;;;;;;22.50;55.30;;;;;;1544433;76;774;-56
2023/05/16 05:33:22;;;;;;;;;;;22.50;55.50;;;;;;1544326;76;730;-57
2023/05/16 05:35:24;;;;;;;;;;;22.50;55.40;;;;;;1548309;76;1410;-57
2023/05/16 05:37:26;;;;;;;;;;;22.50;55.20;;;;;;1548096;75;1133;-57
2023/05/16 05:39:28;;;;;;;;;;;22.60;55.10;;;;;;1541751;76;837;-57
2023/05/16 05:41:30;;;;;;;;;;;22.50;55.10;;;;;;1549068;76;1948;-59
2023/05/16 05:43:32;;;;;;;;;;;22.50;54.90;;;;;;1544388;75;721;-57
2023/05/16 05:45:34;;;;;;;;;;;22.50;54.80;;;;;;1544817;76;708;-57
2023/05/16 05:47:36;;;;;;;;;;;22.50;54.80;;;;;;1543955;76;1110;-57
2023/05/16 05:49:38;;;;;;;;;;;22.50;54.70;;;;;;1536001;75;1438;-56
2023/05/16 05:51:40;;;;;;;;;;;22.50;54.70;;;;;;1543083;76;728;-56
2023/05/16 05:53:42;;;;;;;;;;;22.50;54.70;;;;;;1544042;76;679;-58
2023/05/16 05:55:44;;;;;;;;;;;22.50;54.70;;;;;;1545796;76;812;-56
2023/05/16 05:57:46;;;;;;;;;;;22.50;54.70;;;;;;1545380;75;1112;-57
2023/05/16 05:59:48;;;;;;;;;;;22.50;54.70;;;;;;1537167;76;1929;-57
2023/05/16 06:01:52;;;;;;;;;;;22.50;54.60;;;;;;1549864;76;797;-57
2023/05/16 06:03:54;;;;;;;;;;;22.60;54.50;;;;;;1538944;76;1589;-57
2023/05/16 06:05:56;;;;;;;;;;;22.50;54.40;;;;;;1542658;75;1109;-57
2023/05/16 06:07:58;;;;;;;;;;;22.60;54.40;;;;;;1548200;76;710;-57
2023/05/16 06:10:03;;;;;;;;;;;22.50;54.40;;;;;;1539864;76;708;-56
2023/05/16 06:12:04;;;;;;;;;;;22.60;54.40;;;;;;1555169;75;1576;-56
2023/05/16 06:14:06;;;;;;;;;;;22.50;54.30;;;;;;1540964;76;889;-57
2023/05/16 06:16:08;;;;;;;;;;;22.50;54.10;;;;;;1531615;76;1131;-58
2023/05/16 06:18:10;;;;;;;;;;;22.50;54.00;;;;;;1548620;76;1551;-59
2023/05/16 06:20:12;;;;;;;;;;;22.40;53.80;;;;;;1536654;76;1967;-57
2023/05/16 06:22:14;;;;;;;;;;;22.40;53.70;;;;;;1535047;75;1077;-57
2023/05/16 06:24:16;;;;;;;;;;;22.40;53.70;;;;;;1559773;74;923;-59
2023/05/16 06:26:17;;;;;;;;;;;22.30;53.80;;;;;;1566366;74;1192;-58
2023/05/16 06:28:19;;;;;;;;;;;22.30;53.60;;;;;;1552758;75;673;-59
2023/05/16 06:30:21;;;;;;;;;;;22.40;53.60;;;;;;1563733;76;743;-58
2023/05/16 06:32:23;;;;;;;;;;;22.40;53.40;;;;;;1558022;75;1302;-59
2023/05/16 06:34:28;;;;;;;;;;;22.30;52.80;;;;;;1564305;75;669;-58
2023/05/16 06:36:30;;;;;;;;;;;22.40;52.80;;;;;;1549980;75;1145;-58
2023/05/16 06:38:32;;;;;;;;;;;22.40;52.80;;;;;;1558887;75;642;-59
2023/05/16 06:40:33;;;;;;;;;;;22.40;52.50;;;;;;1559092;76;1935;-55
2023/05/16 06:42:35;;;;;;;;;;;22.30;52.30;;;;;;1560382;74;701;-57
2023/05/16 06:44:37;;;;;;;;;;;22.30;51.80;;;;;;1561186;75;735;-59
2023/05/16 06:46:39;;;;;;;;;;;22.30;51.60;;;;;;1564121;74;1588;-55
2023/05/16 06:48:41;;;;;;;;;;;22.30;51.30;;;;;;1566368;75;631;-59
2023/05/16 06:50:45;;;;;;;;;;;22.30;51.50;;;;;;1559884;75;809;-56
2023/05/16 06:52:46;;;;;;;;;;;22.30;51.40;;;;;;1553207;75;2322;-55
2023/05/16 06:54:48;;;;;;;;;;;22.20;51.30;;;;;;1557325;75;760;-57
2023/05/16 06:56:50;;;;;;;;;;;22.20;51.30;;;;;;1553728;74;1129;-58
2023/05/16 06:58:52;;;;;;;;;;;22.20;51.40;;;;;;1560709;76;721;-57
2023/05/16 07:00:54;;;;;;;;;;;22.20;51.30;;;;;;1557194;75;1942;-56
2023/05/16 07:02:56;;;;;;;;;;;22.20;51.00;;;;;;1558504;75;1056;-56
2023/05/16 07:04:58;;;;;;;;;;;22.20;51.10;;;;;;1567509;75;722;-57
2023/05/16 07:07:00;;;;;;;;;;;22.20;50.70;;;;;;1546762;74;1123;-55
2023/05/16 07:09:02;;;;;;;;;;;22.30;50.80;;;;;;1554199;75;750;-55
2023/05/16 07:11:04;;;;;;;;;;;22.20;50.30;;;;;;1558500;74;737;-57
2023/05/16 07:13:06;;;;;;;;;;;22.20;50.30;;;;;;1556893;76;772;-56
2023/05/16 07:15:08;;;;;;;;;;;22.10;50.30;;;;;;1561622;74;1738;-55
2023/05/16 07:17:10;;;;;;;;;;;22.10;50.10;;;;;;1560459;74;1249;-57
2023/05/16 07:19:12;;;;;;;;;;;22.10;50.10;;;;;;1551129;75;700;-57
2023/05/16 07:21:14;;;;;;;;;;;22.20;49.90;;;;;;1563507;76;1944;-57
2023/05/16 07:23:16;;;;;;;;;;;22.20;50.00;;;;;;1562580;75;1060;-56
2023/05/16 07:25:18;;;;;;;;;;;22.10;49.80;;;;;;1557831;75;762;-57
2023/05/16 07:27:19;;;;;;;;;;;22.20;49.70;;;;;;1556406;74;1316;-55
2023/05/16 07:29:21;;;;;;;;;;;22.20;49.60;;;;;;1567158;75;599;-55
2023/05/16 07:31:23;;;;;;;;;;;22.20;49.30;;;;;;1558540;75;707;-55
2023/05/16 07:33:26;;;;;;;;;;;22.20;49.10;;;;;;1557350;75;723;-56
2023/05/16 07:35:28;;;;;;;;;;;22.20;48.80;;;;;;1560896;75;749;-54
2023/05/16 07:37:30;;;;;;;;;;;22.20;48.70;;;;;;1555288;75;1098;-55
2023/05/16 07:39:32;;;;;;;;;;;22.20;48.50;;;;;;1566267;76;717;-55
2023/05/16 07:41:34;;;;;;;;;;;22.20;48.20;;;;;;1560314;74;1910;-54
2023/05/16 07:43:36;;;;;;;;;;;22.20;48.50;;;;;;1548868;75;699;-55
2023/05/16 07:45:38;;;;;;;;;;;22.20;48.40;;;;;;1559989;75;762;-56
2023/05/16 07:47:40;;;;;;;;;;;22.20;48.10;;;;;;1556724;75;1135;-57
2023/05/16 07:49:42;;;;;;;;;;;22.20;48.10;;;;;;1548672;75;718;-55
2023/05/16 07:51:44;;;;;;;;;;;22.20;48.10;;;;;;1552456;75;712;-57
2023/05/16 07:53:46;;;;;;;;;;;22.20;48.00;;;;;;1550034;76;724;-56
2023/05/16 07:55:49;;;;;;;;;;;22.20;47.70;;;;;;1574423;74;1433;-56
2023/05/16 07:57:51;;;;;;;;;;;22.20;47.90;;;;;;1547529;74;1148;-56
2023/05/16 07:59:53;;;;;;;;;;;22.20;47.90;;;;;;1562591;75;601;-56
2023/05/16 08:01:55;;;;;;;;;;;22.20;48.00;;;;;;1557422;75;1923;-56
2023/05/16 08:03:57;;;;;;;;;;;22.20;48.10;;;;;;1555546;75;669;-56
2023/05/16 08:05:59;;;;;;;;;;;22.20;48.00;;;;;;1554367;74;1151;-57
2023/05/16 08:08:00;;;;;;;;;;;22.20;47.90;;;;;;1567357;76;757;-55
2023/05/16 08:10:02;;;;;;;;;;;22.20;47.90;;;;;;1547630;75;1424;-56
2023/05/16 08:12:04;;;;;;;;;;;22.10;47.30;;;;;;1545093;75;712;-55
2023/05/16 08:14:06;;;;;;;;;;;22.00;47.60;;;;;;1553801;74;725;-55
2023/05/16 08:16:08;;;;;;;;;;;22.00;47.80;;;;;;1561833;74;1129;-57
2023/05/16 08:18:16;;;;;;;;;;;22.00;47.80;;;;;;1563458;75;700;-57
2023/05/16 08:20:18;;;;;;;;;;;22.00;47.80;;;;;;1562665;75;766;-56
2023/05/16 08:22:20;;;;;;;;;;;22.00;47.60;;;;;;1551159;75;1941;-56
2023/05/16 08:24:22;;;;;;;;;;;22.00;47.60;;;;;;1534906;76;1433;-58
2023/05/16 08:26:23;;;;;;;;;;;22.00;47.70;;;;;;1521793;76;1215;-55
2023/05/16 08:28:25;;;;;;;;;;;22.00;47.60;;;;;;1515494;77;709;-55
2023/05/16 08:30:28;;;;;;;;;;;22.10;47.80;;;;;;1521730;76;750;-57
2023/05/16 08:32:30;;;;;;;;;;;22.10;47.90;;;;;;1528298;76;770;-55
2023/05/16 08:34:32;;;;;;;;;;;22.10;47.90;;;;;;1520907;76;661;-55
2023/05/16 08:36:34;;;;;;;;;;;22.10;48.00;;;;;;1526929;76;1199;-57
2023/05/16 08:38:37;;;;;;;;;;;22.10;48.00;;;;;;1519801;76;1528;-55
2023/05/16 08:40:39;;;;;;;;;;;22.10;47.90;;;;;;1513476;76;801;-54
2023/05/16 08:42:41;;;;;;;;;;;22.00;47.80;;;;;;1526038;76;1910;-55
2023/05/16 08:44:43;;;;;;;;;;;22.00;47.80;;;;;;1522812;76;670;-55
2023/05/16 08:46:45;;;;;;;;;;;22.10;47.80;;;;;;1518200;76;1079;-55
2023/05/16 08:48:47;;;;;;;;;;;22.00;47.50;;;;;;1506092;76;730;-55
2023/05/16 08:50:49;;;;;;;;;;;22.00;46.90;;;;;;1523107;77;740;-58
2023/05/16 08:52:51;;;;;;;;;;;22.00;47.30;;;;;;1531063;76;1506;-58
2023/05/16 08:54:53;;;;;;;;;;;22.00;47.40;;;;;;1521784;76;725;-57
2023/05/16 08:56:55;;;;;;;;;;;22.00;47.30;;;;;;1514711;76;1151;-55
2023/05/16 08:58:57;;;;;;;;;;;22.00;47.30;;;;;;1514472;76;700;-55
2023/05/16 09:00:58;;;;;;;;;;;22.00;47.50;;;;;;1513288;76;1944;-57
2023/05/16 09:03:00;;;;;;;;;;;22.00;47.10;;;;;;1528533;76;709;-57
2023/05/16 09:05:02;;;;;;;;;;;21.90;46.90;;;;;;1518158;76;783;-55
2023/05/16 09:07:04;;;;;;;;;;;21.80;47.10;;;;;;1525328;76;1552;-55
2023/05/16 09:09:08;;;;;;;;;;;21.70;47.20;;;;;;1512195;76;742;-55
2023/05/16 09:11:10;;;;;;;;;;;21.80;47.30;;;;;;1519380;76;831;-57
2023/05/16 09:13:11;;;;;;;;;;;21.70;47.40;;;;;;1514824;76;721;-57
2023/05/16 09:15:13;;;;;;;;;;;21.70;47.40;;;;;;1515650;76;790;-55
2023/05/16 09:17:15;;;;;;;;;;;21.70;47.40;;;;;;1522990;77;1166;-57
2023/05/16 09:19:17;;;;;;;;;;;21.70;47.60;;;;;;1521555;77;701;-56
2023/05/16 09:21:19;;;;;;;;;;;21.80;47.50;;;;;;1519099;76;1922;-55
2023/05/16 09:23:22;;;;;;;;;;;21.80;47.40;;;;;;1525619;76;803;-57
2023/05/16 09:25:25;;;;;;;;;;;21.80;47.50;;;;;;1518408;76;1557;-56
2023/05/16 09:27:29;;;;;;;;;;;21.90;47.70;;;;;;1518276;76;1176;-56
2023/05/16 09:29:31;;;;;;;;;;;21.90;47.40;;;;;;1520991;76;626;-58
2023/05/16 09:31:37;;;;;;;;;;;21.80;47.00;;;;;;1531383;77;730;-58
2023/05/16 09:33:36;;;;;;;;;;;21.80;47.30;;;;;;1518269;77;1019;-57
2023/05/16 09:35:38;;;;;;;;;;;21.80;47.50;;;;;;1529446;76;1661;-55
2023/05/16 09:37:42;;;;;;;;;;;21.80;47.50;;;;;;1524341;76;1106;-58
2023/05/16 09:39:47;;;;;;;;;;;21.90;47.60;;;;;;1527174;76;1965;-58
2023/05/16 09:41:50;;;;;;;;;;;21.90;47.60;;;;;;1513096;76;1931;-55
2023/05/16 09:43:52;;;;;;;;;;;21.90;47.60;;;;;;1519858;76;750;-58
2023/05/16 09:45:54;;;;;;;;;;;22.00;47.60;;;;;;1516165;77;1143;-59
2023/05/16 09:48:04;;;;;;;;;;;22.00;47.60;;;;;;1515311;76;1466;-56
2023/05/16 09:50:06;;;;;;;;;;;22.00;47.60;;;;;;1524348;76;701;-56
2023/05/16 09:52:08;;;;;;;;;;;22.00;47.40;;;;;;1509560;76;723;-55
2023/05/16 09:54:10;;;;;;;;;;;21.90;47.40;;;;;;1521045;77;1069;-55
2023/05/16 09:56:13;;;;;;;;;;;21.90;47.50;;;;;;1511720;76;1128;-59
2023/05/16 09:58:17;;;;;;;;;;;21.90;47.50;;;;;;1508637;76;782;-57
2023/05/16 10:00:19;;;;;;;;;;;21.90;47.60;;;;;;1514482;76;667;-58
2023/05/16 10:02:21;;;;;;;;;;;21.90;47.60;;;;;;1517322;76;1938;-56
2023/05/16 10:04:23;;;;;;;;;;;21.90;47.70;;;;;;1532311;76;801;-56
2023/05/16 10:06:25;;;;;;;;;;;21.90;47.70;;;;;;1531211;77;1140;-56
2023/05/16 10:08:27;;;;;;;;;;;21.90;47.80;;;;;;1525708;76;733;-56
2023/05/16 10:10:29;;;;;;;;;;;21.90;47.80;;;;;;1520045;76;734;-57
2023/05/16 10:12:31;;;;;;;;;;;21.80;47.70;;;;;;1526038;76;715;-58
2023/05/16 10:14:33;;;;;;;;;;;21.90;47.80;;;;;;1510457;76;804;-57
2023/05/16 10:16:35;;;;;;;;;;;21.80;47.80;;;;;;1518583;76;1516;-59
2023/05/16 10:18:37;;;;;;;;;;;21.80;48.00;;;;;;1526858;76;745;-58
2023/05/16 10:20:42;;;;;;;;;;;21.90;47.90;;;;;;1528333;76;750;-57
2023/05/16 10:22:44;;;;;;;;;;;21.90;47.90;;;;;;1520323;76;1937;-58
2023/05/16 10:24:47;;;;;;;;;;;21.90;48.10;;;;;;1525044;76;1041;-59
2023/05/16 10:26:50;;;;;;;;;;;21.90;48.20;;;;;;1547259;75;1181;-58
2023/05/16 10:28:52;;;;;;;;;;;21.90;48.50;;;;;;1557484;75;767;-59
2023/05/16 10:30:54;;;;;;;;;;;21.90;48.50;;;;;;1556353;75;1544;-59
2023/05/16 10:33:17;;;;;;;;;;;21.90;48.60;;;;;;1620094;72;647;-59
2023/05/16 10:35:20;;;;;;;;;;;21.90;48.60;;;;;;1598097;73;790;-56
2023/05/16 10:37:23;;;;;;;;;;;22.00;48.40;;;;;;1580076;73;1188;-55
2023/05/16 10:39:25;;;;;;;;;;;22.00;48.50;;;;;;1583859;74;653;-56
2023/05/16 10:41:26;;;;;;;;;;;21.90;48.50;;;;;;1588285;74;752;-58
2023/05/16 10:43:32;;;;;;;;;;;22.00;48.50;;;;;;1583787;74;768;-57
2023/05/16 10:45:35;;;;;;;;;;;22.00;48.60;;;;;;1581109;74;1626;-58
2023/05/16 10:47:36;;;;;;;;;;;22.00;48.60;;;;;;1583496;74;1133;-57
2023/05/16 10:49:41;;;;;;;;;;;22.00;48.70;;;;;;1581539;74;677;-58
2023/05/16 10:51:43;;;;;;;;;;;22.00;48.70;;;;;;1577501;74;1931;-58
2023/05/16 10:53:45;;;;;;;;;;;22.00;48.80;;;;;;1586715;74;728;-58
2023/05/16 10:55:50;;;;;;;;;;;22.00;48.80;;;;;;1550003;76;779;-59
2023/05/16 10:57:52;;;;;;;;;;;22.00;48.90;;;;;;1587878;74;1113;-57
2023/05/16 11:00:00;;;;;;;;;;;22.00;49.10;;;;;;1583405;74;1503;-58
2023/05/16 11:01:58;;;;;;;;;;;21.90;49.60;;;;;;1584956;74;1518;-56
2023/05/16 11:04:03;;;;;;;;;;;21.90;49.80;;;;;;1579673;74;688;-55
2023/05/16 11:06:05;;;;;;;;;;;21.90;50.20;;;;;;1584885;74;1088;-56
2023/05/16 11:08:06;;;;;;;;;;;21.90;50.10;;;;;;1584975;74;704;-57
2023/05/16 11:10:09;;;;;;;;;;;21.90;49.90;;;;;;1587588;74;744;-57
2023/05/16 11:12:11;;;;;;;;;;;22.00;49.80;;;;;;1581105;74;1924;-56
2023/05/16 11:14:22;;;;;;;;;;;22.00;49.70;;;;;;1544774;76;1709;-57
2023/05/16 11:16:27;;;;;;;;;;;22.00;49.70;;;;;;1582759;75;1089;-59
2023/05/16 11:18:31;;;;;;;;;;;22.00;49.60;;;;;;1583091;74;691;-58
2023/05/16 11:20:34;;;;;;;;;;;22.00;49.60;;;;;;1578962;74;717;-56
2023/05/16 11:22:40;;;;;;;;;;;22.00;49.60;;;;;;1584170;74;748;-58
2023/05/16 11:24:42;;;;;;;;;;;22.00;49.60;;;;;;1582153;74;1573;-56
2023/05/16 11:26:44;;;;;;;;;;;22.10;49.60;;;;;;1578215;74;1774;-57
2023/05/16 11:28:48;;;;;;;;;;;22.10;49.60;;;;;;1577588;74;760;-59
2023/05/16 11:30:51;;;;;;;;;;;22.00;49.50;;;;;;1581796;74;665;-54
2023/05/16 11:32:53;;;;;;;;;;;22.00;49.50;;;;;;1578559;74;1913;-57
2023/05/16 11:34:55;;;;;;;;;;;22.10;49.70;;;;;;1540836;76;701;-57
2023/05/16 11:36:57;;;;;;;;;;;22.10;49.70;;;;;;1573082;75;1181;-57
2023/05/16 11:39:00;;;;;;;;;;;22.10;49.90;;;;;;1573572;75;667;-58
2023/05/16 11:41:03;;;;;;;;;;;22.10;50.00;;;;;;1569898;75;1713;-55
2023/05/16 11:43:05;;;;;;;;;;;22.10;50.00;;;;;;1578774;75;780;-54
2023/05/16 11:45:08;;;;;;;;;;;22.10;49.90;;;;;;1564447;75;736;-57
2023/05/16 11:47:10;;;;;;;;;;;22.00;49.80;;;;;;1574952;75;1153;-57
2023/05/16 11:49:12;;;;;;;;;;;22.10;49.80;;;;;;1570869;75;740;-57
2023/05/16 11:51:17;;;;;;;;;;;22.10;49.80;;;;;;1578687;74;726;-55
2023/05/16 11:53:17;;;;;;;;;;;22.10;49.90;;;;;;1579013;75;1925;-56
2023/05/16 11:55:23;;;;;;;;;;;22.10;49.90;;;;;;1572513;74;1503;-56
2023/05/16 11:57:25;;;;;;;;;;;22.10;49.80;;;;;;1565722;74;1125;-56
2023/05/16 11:59:27;;;;;;;;;;;22.10;49.80;;;;;;1577255;74;605;-58
2023/05/16 12:01:34;;;;;;;;;;;22.10;49.80;;;;;;1574273;74;754;-57
2023/05/16 12:03:37;;;;;;;;;;;22.10;49.80;;;;;;1571302;74;1034;-58
2023/05/16 12:05:39;;;;;;;;;;;22.10;49.80;;;;;;1577032;74;644;-57
2023/05/16 12:07:43;;;;;;;;;;;22.20;49.80;;;;;;1578890;75;1140;-55